Time;durP1;ratioP1;P1;durP2;ratioP2;P2;SDS_P1;SDS_P2;PMS_P1;PMS_P2;Temp;Humidity;BMP_temperature;BMP_pressure;BME280_temperature;BME280_humidity;BME280_pressure;Samples;Min_cycle;Max_cycle;Signal;HPM_P1;HPM_P2
2022/05/08 00:02:11;;;;;;;11.70;9.00;;;13.60;86.60;;;;;;5002225;28;20482;-53
2022/05/08 00:04:38;;;;;;;18.13;9.77;;;13.50;86.90;;;;;;4992167;28;20768;-53
2022/05/08 00:07:05;;;;;;;11.63;10.43;;;13.40;89.30;;;;;;4995358;28;20486;-52
2022/05/08 00:09:32;;;;;;;13.53;10.60;;;13.30;88.80;;;;;;4997962;28;20490;-52
2022/05/08 00:11:59;;;;;;;11.33;10.33;;;13.30;88.40;;;;;;5002424;28;20506;-52
2022/05/08 00:14:25;;;;;;;9.10;8.27;;;13.30;89.10;;;;;;4998790;28;20492;-52
2022/05/08 00:16:52;;;;;;;10.43;9.30;;;13.30;88.20;;;;;;4993818;28;20492;-52
2022/05/08 00:19:20;;;;;;;11.37;9.07;;;13.20;87.80;;;;;;5001270;28;20585;-53
2022/05/08 00:21:47;;;;;;;13.07;8.67;;;13.10;87.30;;;;;;4992572;28;20491;-53
2022/05/08 00:24:13;;;;;;;12.00;8.57;;;13.10;87.00;;;;;;4992501;28;21232;-53
2022/05/08 00:26:40;;;;;;;9.90;8.60;;;12.80;87.10;;;;;;4993022;28;20468;-53
2022/05/08 00:29:10;;;;;;;10.77;8.90;;;12.70;87.80;;;;;;4996983;28;20996;-53
2022/05/08 00:31:37;;;;;;;20.23;10.70;;;12.60;89.20;;;;;;4995204;28;21037;-53
2022/05/08 00:34:04;;;;;;;12.80;11.40;;;12.60;89.50;;;;;;4996971;28;20477;-53
2022/05/08 00:36:32;;;;;;;13.60;10.60;;;12.40;90.30;;;;;;4995880;28;20986;-53
2022/05/08 00:38:58;;;;;;;12.00;10.53;;;12.40;90.30;;;;;;5003420;28;20972;-53
2022/05/08 00:41:25;;;;;;;11.23;9.80;;;12.30;89.80;;;;;;4999277;28;20981;-53
2022/05/08 00:43:52;;;;;;;13.27;10.23;;;12.20;90.20;;;;;;5003053;28;20482;-53
2022/05/08 00:46:19;;;;;;;10.87;9.77;;;12.20;89.80;;;;;;4998168;28;21040;-53
2022/05/08 00:48:46;;;;;;;11.20;8.20;;;12.10;90.00;;;;;;4992836;28;20642;-53
2022/05/08 00:51:14;;;;;;;15.97;9.30;;;12.10;89.30;;;;;;4991347;28;20485;-53
2022/05/08 00:53:44;;;;;;;10.53;9.43;;;12.00;88.70;;;;;;4995764;28;20708;-53
2022/05/08 00:56:13;;;;;;;12.00;10.80;;;11.90;89.00;;;;;;4999684;28;20871;-53
2022/05/08 00:58:40;;;;;;;13.00;10.17;;;11.70;91.10;;;;;;4993054;28;20944;-53
2022/05/08 01:01:10;;;;;;;16.23;11.47;;;11.60;91.40;;;;;;5003846;28;20490;-53
2022/05/08 01:03:37;;;;;;;12.00;10.80;;;11.70;90.90;;;;;;5001211;28;20944;-53
2022/05/08 01:06:06;;;;;;;11.63;9.20;;;11.70;90.50;;;;;;5001664;28;20497;-53
2022/05/08 01:08:34;;;;;;;13.10;10.60;;;11.80;90.30;;;;;;4999604;28;20925;-53
2022/05/08 01:11:04;;;;;;;17.73;11.80;;;11.80;90.40;;;;;;5001420;28;20485;-53
2022/05/08 01:13:30;;;;;;;12.30;10.90;;;11.80;91.20;;;;;;4996762;28;21082;-53
2022/05/08 01:15:57;;;;;;;11.93;9.60;;;11.70;91.70;;;;;;5003382;28;20489;-53
2022/05/08 01:18:24;;;;;;;9.60;8.70;;;11.70;90.70;;;;;;5002953;28;20478;-53
2022/05/08 01:20:51;;;;;;;10.23;8.40;;;11.60;89.80;;;;;;4997733;28;20624;-53
2022/05/08 01:23:21;;;;;;;13.07;9.47;;;11.50;89.70;;;;;;5002582;28;20496;-53
2022/05/08 01:25:50;;;;;;;10.90;9.30;;;11.30;90.30;;;;;;4999591;28;20570;-53
2022/05/08 01:28:17;;;;;;;13.73;10.90;;;11.20;90.80;;;;;;5000543;28;20479;-53
2022/05/08 01:30:45;;;;;;;12.87;11.17;;;11.30;90.90;;;;;;5010382;28;20575;-54
2022/05/08 01:33:13;;;;;;;13.40;10.93;;;11.20;91.00;;;;;;5013870;28;20503;-54
2022/05/08 01:35:40;;;;;;;13.03;11.63;;;11.10;91.80;;;;;;5013132;28;20487;-53
2022/05/08 01:38:08;;;;;;;15.67;13.40;;;11.10;92.30;;;;;;5010977;28;21057;-53
2022/05/08 01:40:36;;;;;;;15.23;11.20;;;11.10;92.70;;;;;;5014200;28;20487;-53
2022/05/08 01:43:04;;;;;;;14.40;10.97;;;11.10;91.70;;;;;;5017284;28;20480;-54
2022/05/08 01:45:31;;;;;;;12.00;10.70;;;11.00;91.40;;;;;;5017007;28;20973;-53
2022/05/08 01:50:43;;;;;;;10.67;9.57;;;11.10;91.30;;;;;;5013531;28;20527;-53
2022/05/08 01:53:10;;;;;;;10.73;9.63;;;11.00;90.70;;;;;;5016186;28;21382;-54
2022/05/08 01:55:38;;;;;;;11.50;10.30;;;11.00;90.40;;;;;;5016176;28;20482;-54
2022/05/08 01:58:05;;;;;;;12.20;10.20;;;11.00;90.30;;;;;;5016505;28;20489;-54
2022/05/08 02:00:32;;;;;;;10.70;8.30;;;11.00;90.10;;;;;;5012947;28;20478;-53
2022/05/08 02:03:01;;;;;;;11.40;9.93;;;11.00;90.00;;;;;;5016104;28;20468;-53
2022/05/08 02:05:29;;;;;;;13.70;10.83;;;11.00;90.20;;;;;;5010958;28;20481;-54
2022/05/08 02:07:56;;;;;;;10.40;8.90;;;11.00;90.50;;;;;;5017016;28;20492;-54
2022/05/08 02:10:23;;;;;;;11.57;10.37;;;11.00;90.50;;;;;;5012970;28;20574;-53
2022/05/08 02:12:52;;;;;;;12.53;9.60;;;11.00;90.10;;;;;;5016334;28;20614;-53
2022/05/08 02:15:18;;;;;;;15.07;11.40;;;10.90;90.20;;;;;;5015313;28;20491;-53
2022/05/08 02:17:46;;;;;;;13.30;11.47;;;10.80;90.70;;;;;;5014874;28;20490;-53
2022/05/08 02:20:12;;;;;;;16.80;11.43;;;10.80;91.20;;;;;;5015321;28;20506;-54
2022/05/08 02:22:39;;;;;;;10.50;9.53;;;10.80;90.90;;;;;;5014506;28;20495;-54
2022/05/08 02:25:07;;;;;;;12.13;9.33;;;10.80;90.30;;;;;;5015540;28;20495;-54
2022/05/08 02:27:38;;;;;;;12.67;9.60;;;10.80;90.50;;;;;;5016203;28;20512;-55
2022/05/08 02:30:09;;;;;;;11.70;9.43;;;10.70;90.20;;;;;;5014348;28;20473;-54
2022/05/08 02:32:36;;;;;;;14.00;8.50;;;10.60;90.30;;;;;;5009511;28;20571;-54
2022/05/08 02:35:03;;;;;;;9.63;8.73;;;10.60;90.10;;;;;;5012394;28;20492;-54
2022/05/08 02:37:29;;;;;;;11.17;10.10;;;10.40;90.00;;;;;;5013175;28;20490;-54
2022/05/08 02:39:56;;;;;;;14.83;12.43;;;10.20;90.80;;;;;;5013095;28;20928;-53
2022/05/08 02:42:23;;;;;;;14.60;11.10;;;10.10;91.90;;;;;;5014513;28;20491;-54
2022/05/08 02:44:50;;;;;;;14.10;11.67;;;10.10;91.70;;;;;;5013779;28;21110;-54
2022/05/08 02:47:18;;;;;;;17.47;11.30;;;10.20;91.60;;;;;;5011281;28;20480;-54
2022/05/08 02:49:45;;;;;;;18.27;10.60;;;10.30;91.30;;;;;;5010491;28;20474;-53
2022/05/08 02:52:11;;;;;;;12.40;10.40;;;10.30;91.10;;;;;;5014399;28;20874;-53
2022/05/08 02:54:38;;;;;;;13.40;9.80;;;10.30;90.90;;;;;;5011127;28;20899;-53
2022/05/08 02:59:50;;;;;;;15.50;9.97;;;10.30;90.30;;;;;;5010998;28;20487;-53
2022/05/08 03:02:18;;;;;;;12.57;10.17;;;10.30;90.00;;;;;;5018241;28;20484;-53
2022/05/08 03:04:45;;;;;;;14.47;12.23;;;10.40;90.00;;;;;;5018144;28;20493;-53
2022/05/08 03:07:12;;;;;;;12.50;10.90;;;10.40;90.30;;;;;;5019923;28;20563;-53
2022/05/08 03:09:39;;;;;;;9.83;8.80;;;10.40;90.30;;;;;;5016289;28;20518;-53
2022/05/08 03:12:06;;;;;;;10.20;8.90;;;10.40;90.00;;;;;;5019877;28;20490;-54
2022/05/08 03:14:33;;;;;;;10.70;9.60;;;10.30;89.60;;;;;;5018669;28;20477;-54
2022/05/08 03:16:59;;;;;;;10.30;9.30;;;10.20;89.70;;;;;;5017753;28;20843;-54
2022/05/08 03:19:29;;;;;;;11.13;9.73;;;10.10;90.00;;;;;;5016500;28;20499;-54
2022/05/08 03:21:55;;;;;;;13.90;10.30;;;10.00;90.10;;;;;;5020511;28;20625;-54
2022/05/08 03:24:22;;;;;;;13.43;10.60;;;10.00;90.10;;;;;;5017902;28;20781;-54
2022/05/08 03:26:49;;;;;;;11.50;10.10;;;10.00;89.90;;;;;;5017723;28;20491;-54
2022/05/08 03:29:15;;;;;;;11.40;10.03;;;10.00;89.90;;;;;;5017699;28;20983;-55
2022/05/08 03:31:42;;;;;;;12.00;10.80;;;9.80;90.80;;;;;;5019066;28;20537;-54
2022/05/08 03:34:09;;;;;;;19.83;10.50;;;9.90;90.80;;;;;;5011068;28;20484;-54
2022/05/08 03:36:37;;;;;;;14.10;11.60;;;9.90;90.80;;;;;;5014515;28;20824;-54
2022/05/08 03:39:03;;;;;;;14.07;12.00;;;9.90;90.80;;;;;;5020008;28;20490;-54
2022/05/08 03:41:30;;;;;;;12.20;10.23;;;9.90;91.00;;;;;;5019490;28;20487;-54
2022/05/08 03:43:57;;;;;;;11.93;10.53;;;9.90;91.00;;;;;;5007577;28;20530;-54
2022/05/08 03:46:23;;;;;;;12.07;10.50;;;9.80;90.90;;;;;;5018771;28;20517;-54
2022/05/08 03:48:51;;;;;;;12.67;10.87;;;9.80;90.70;;;;;;5017215;28;21019;-54
2022/05/08 03:51:18;;;;;;;10.47;9.47;;;9.90;90.60;;;;;;5017763;28;20491;-54
2022/05/08 03:53:46;;;;;;;10.80;9.70;;;9.90;90.40;;;;;;5014848;28;20463;-55
2022/05/08 03:56:12;;;;;;;10.93;9.30;;;9.90;90.40;;;;;;5018008;28;20538;-55
2022/05/08 03:58:39;;;;;;;12.60;10.10;;;10.00;90.00;;;;;;5017491;28;20480;-55
2022/05/08 04:01:06;;;;;;;11.30;9.80;;;10.00;89.70;;;;;;5014909;28;21133;-55
2022/05/08 04:03:32;;;;;;;13.03;9.80;;;10.00;89.50;;;;;;5017905;28;20475;-55
2022/05/08 04:05:59;;;;;;;11.37;10.27;;;10.10;89.20;;;;;;5017886;28;20487;-55
2022/05/08 04:08:26;;;;;;;11.40;9.83;;;10.10;89.10;;;;;;5019253;28;20994;-55
2022/05/08 04:10:56;;;;;;;12.27;10.67;;;10.10;88.70;;;;;;5020518;28;20481;-55
2022/05/08 04:13:22;;;;;;;13.10;9.80;;;10.10;88.50;;;;;;5014923;28;20479;-55
2022/05/08 04:18:33;;;;;;;11.10;9.93;;;10.10;88.80;;;;;;5018044;28;20820;-55
2022/05/08 04:21:00;;;;;;;12.13;10.60;;;10.10;89.00;;;;;;5016566;28;20491;-55
2022/05/08 04:26:12;;;;;;;12.57;8.80;;;10.20;89.50;;;;;;5008247;28;20501;-56
2022/05/08 04:28:39;;;;;;;11.50;9.63;;;10.20;88.90;;;;;;5017165;28;20479;-56
2022/05/08 04:31:05;;;;;;;12.40;10.70;;;10.20;88.40;;;;;;5018183;28;20850;-56
2022/05/08 04:33:32;;;;;;;11.37;10.20;;;10.20;88.40;;;;;;5015287;28;20492;-56
2022/05/08 04:35:59;;;;;;;11.20;10.10;;;10.20;88.00;;;;;;5013393;28;20484;-56
2022/05/08 04:38:25;;;;;;;10.93;9.83;;;10.20;88.00;;;;;;5014273;28;20487;-55
2022/05/08 04:40:52;;;;;;;13.87;10.77;;;10.10;88.00;;;;;;5015274;28;20489;-55
2022/05/08 04:43:21;;;;;;;11.40;10.20;;;10.10;87.90;;;;;;5012668;28;21000;-55
2022/05/08 04:45:47;;;;;;;12.27;10.83;;;10.10;88.70;;;;;;5017191;28;20471;-55
2022/05/08 04:48:14;;;;;;;14.90;10.10;;;10.10;89.30;;;;;;5017958;28;20491;-55
2022/05/08 04:50:41;;;;;;;13.80;10.40;;;10.10;89.10;;;;;;5017651;28;20481;-55
2022/05/08 04:53:07;;;;;;;12.13;10.60;;;10.20;89.10;;;;;;5018575;28;20830;-55
2022/05/08 04:55:34;;;;;;;11.63;10.43;;;10.20;89.00;;;;;;5017191;28;20970;-55
2022/05/08 04:58:01;;;;;;;11.20;9.63;;;10.10;89.30;;;;;;5016971;28;20495;-55
2022/05/08 05:00:29;;;;;;;11.30;10.10;;;10.10;89.60;;;;;;5017713;28;21047;-55
2022/05/08 05:02:56;;;;;;;11.50;9.70;;;10.10;89.80;;;;;;5011079;28;20496;-55
2022/05/08 05:05:23;;;;;;;12.53;9.93;;;10.00;89.70;;;;;;5016152;28;20487;-55
2022/05/08 05:07:50;;;;;;;12.73;10.47;;;10.00;90.10;;;;;;5016070;28;20495;-55
2022/05/08 05:10:17;;;;;;;14.80;11.27;;;10.00;90.00;;;;;;5015691;28;20474;-55
2022/05/08 05:12:44;;;;;;;11.23;9.70;;;10.00;90.20;;;;;;5017203;28;20861;-55
2022/05/08 05:15:12;;;;;;;12.87;11.17;;;10.10;90.70;;;;;;5008043;28;20473;-56
2022/05/08 05:17:40;;;;;;;14.33;11.77;;;10.30;91.00;;;;;;5017527;28;20509;-56
2022/05/08 05:20:08;;;;;;;10.87;9.73;;;10.50;90.80;;;;;;5016068;28;20483;-56
2022/05/08 05:22:35;;;;;;;14.97;11.43;;;10.70;90.80;;;;;;5016075;28;20479;-56
2022/05/08 05:25:02;;;;;;;12.30;10.97;;;10.90;91.00;;;;;;5017344;28;21017;-56
2022/05/08 05:27:30;;;;;;;15.97;12.33;;;11.00;91.10;;;;;;5017393;28;20494;-56
2022/05/08 05:29:57;;;;;;;15.70;12.10;;;11.20;91.40;;;;;;5013936;28;20488;-56
2022/05/08 05:32:24;;;;;;;14.20;12.57;;;11.40;91.40;;;;;;5016734;28;20833;-55
2022/05/08 05:34:52;;;;;;;15.00;12.30;;;11.40;91.40;;;;;;5017464;28;20508;-55
2022/05/08 05:37:19;;;;;;;11.93;10.73;;;11.60;91.10;;;;;;5017053;28;20973;-55
2022/05/08 05:39:45;;;;;;;12.27;10.97;;;11.70;90.80;;;;;;4995375;28;20490;-55
2022/05/08 05:42:12;;;;;;;22.93;13.23;;;11.90;91.10;;;;;;4998372;28;20527;-55
2022/05/08 05:44:39;;;;;;;23.47;17.43;;;12.10;91.40;;;;;;4997081;28;20939;-55
2022/05/08 05:49:52;;;;;;;18.77;16.57;;;12.40;91.90;;;;;;4995133;28;20496;-55
2022/05/08 05:52:18;;;;;;;18.00;14.57;;;12.70;92.20;;;;;;4991739;28;20491;-55
2022/05/08 05:54:45;;;;;;;19.13;15.53;;;12.90;92.40;;;;;;4995337;28;20488;-56
2022/05/08 05:57:11;;;;;;;16.40;14.60;;;13.10;92.70;;;;;;5000815;28;20476;-56
2022/05/08 05:59:38;;;;;;;17.20;15.10;;;13.30;93.10;;;;;;4993826;28;20517;-56
2022/05/08 06:02:05;;;;;;;17.40;15.03;;;13.40;93.10;;;;;;5004120;28;20483;-55
2022/05/08 06:04:31;;;;;;;19.40;17.30;;;13.60;93.40;;;;;;4997870;28;20789;-57
2022/05/08 06:06:59;;;;;;;19.30;16.27;;;13.70;93.80;;;;;;4995244;28;20918;-56
2022/05/08 06:09:26;;;;;;;21.40;14.97;;;13.90;93.40;;;;;;4996283;28;20489;-56
2022/05/08 06:11:53;;;;;;;19.00;16.60;;;14.10;93.60;;;;;;4994478;28;20498;-56
2022/05/08 06:14:20;;;;;;;20.37;16.50;;;14.20;93.50;;;;;;4996014;28;20547;-57
2022/05/08 06:16:46;;;;;;;18.03;16.07;;;14.30;93.60;;;;;;4993527;28;20484;-58
2022/05/08 06:19:13;;;;;;;20.37;16.60;;;14.50;93.60;;;;;;4997001;28;20490;-57
2022/05/08 06:21:40;;;;;;;22.90;16.90;;;14.60;93.50;;;;;;4995866;28;20680;-56
2022/05/08 06:24:08;;;;;;;24.03;17.27;;;14.80;93.60;;;;;;4993527;28;20939;-57
2022/05/08 06:26:35;;;;;;;18.83;15.77;;;15.00;93.80;;;;;;4996643;28;20897;-56
2022/05/08 06:29:02;;;;;;;24.20;16.97;;;15.20;93.90;;;;;;4996221;28;20488;-58
2022/05/08 06:31:28;;;;;;;23.97;18.60;;;15.50;94.00;;;;;;4993982;28;20493;-57
2022/05/08 06:33:55;;;;;;;16.80;15.10;;;15.70;93.90;;;;;;4994162;28;20736;-57
2022/05/08 06:36:22;;;;;;;19.67;15.73;;;15.90;94.00;;;;;;4985590;28;20480;-56
2022/05/08 06:38:49;;;;;;;17.57;15.33;;;16.10;93.60;;;;;;4995259;28;21087;-56
2022/05/08 06:41:17;;;;;;;15.93;13.50;;;16.30;93.30;;;;;;4997680;28;20812;-57
2022/05/08 06:43:44;;;;;;;16.43;13.30;;;16.60;93.10;;;;;;4994765;28;20475;-57
2022/05/08 06:46:11;;;;;;;17.90;16.00;;;16.80;92.40;;;;;;4997017;28;20479;-57
2022/05/08 06:48:39;;;;;;;17.70;15.80;;;17.20;92.60;;;;;;4992522;28;20503;-57
2022/05/08 06:51:05;;;;;;;15.90;14.20;;;17.40;92.70;;;;;;4995342;28;20547;-57
2022/05/08 06:53:33;;;;;;;17.70;13.97;;;17.70;92.40;;;;;;4996143;28;20778;-57
2022/05/08 06:55:59;;;;;;;15.03;13.50;;;18.00;91.40;;;;;;4995758;28;20493;-57
2022/05/08 06:58:27;;;;;;;14.87;12.83;;;18.30;91.70;;;;;;4995939;28;20492;-57
2022/05/08 07:03:39;;;;;;;14.63;12.87;;;18.80;91.00;;;;;;4992358;28;20475;-58
2022/05/08 07:06:06;;;;;;;16.67;12.97;;;19.10;90.30;;;;;;4998418;28;20547;-57
2022/05/08 07:08:33;;;;;;;15.97;14.47;;;19.30;90.10;;;;;;4991200;28;20606;-57
2022/05/08 07:11:01;;;;;;;13.43;12.13;;;19.40;90.20;;;;;;4994398;28;21022;-58
2022/05/08 07:13:29;;;;;;;13.93;12.53;;;19.60;89.80;;;;;;4990236;28;20587;-58
2022/05/08 07:15:56;;;;;;;14.00;10.53;;;19.80;89.30;;;;;;4990655;28;20481;-57
2022/05/08 07:18:22;;;;;;;15.23;12.00;;;20.00;87.40;;;;;;4993117;28;20470;-58
2022/05/08 07:20:49;;;;;;;14.80;11.93;;;20.10;86.20;;;;;;4995580;28;20496;-57
2022/05/08 07:23:16;;;;;;;12.83;11.37;;;20.20;87.00;;;;;;4984366;28;20481;-57
2022/05/08 07:25:42;;;;;;;13.30;10.37;;;20.30;86.90;;;;;;4999785;28;20842;-56
2022/05/08 07:28:09;;;;;;;12.73;11.30;;;20.50;86.80;;;;;;4995856;28;20851;-54
2022/05/08 07:30:37;;;;;;;13.13;11.00;;;20.60;86.50;;;;;;4994763;28;20556;-54
2022/05/08 07:33:04;;;;;;;16.43;11.20;;;20.70;86.00;;;;;;4997330;28;20902;-57
2022/05/08 07:38:16;;;;;;;15.53;11.60;;;21.00;85.00;;;;;;5014086;28;20480;-57
2022/05/08 07:40:47;;;;;;;14.40;10.63;;;21.10;86.10;;;;;;5012995;28;20999;-56
2022/05/08 07:43:15;;;;;;;13.40;10.33;;;21.20;85.00;;;;;;5011610;28;20501;-56
2022/05/08 07:45:43;;;;;;;11.27;9.57;;;21.30;84.70;;;;;;5014708;28;20899;-56
2022/05/08 07:48:10;;;;;;;11.17;10.07;;;21.50;84.50;;;;;;5007290;28;20493;-56
2022/05/08 07:50:36;;;;;;;13.37;9.03;;;21.70;83.20;;;;;;5022346;28;20473;-53
2022/05/08 07:53:03;;;;;;;10.77;9.67;;;21.80;83.00;;;;;;5008473;28;20487;-53
2022/05/08 07:55:31;;;;;;;9.67;8.87;;;22.00;81.90;;;;;;5017157;28;20485;-56
2022/05/08 07:57:58;;;;;;;12.63;9.33;;;22.10;81.70;;;;;;5019220;28;20910;-56
2022/05/08 08:00:24;;;;;;;16.20;9.83;;;22.20;82.70;;;;;;5017400;28;20476;-56
2022/05/08 08:02:53;;;;;;;13.20;10.17;;;22.40;82.60;;;;;;5016698;28;20478;-57
2022/05/08 08:05:20;;;;;;;10.17;9.17;;;22.50;81.70;;;;;;5018392;28;20906;-55
2022/05/08 08:07:47;;;;;;;10.90;8.57;;;22.60;80.90;;;;;;5017931;28;20495;-53
2022/05/08 08:10:14;;;;;;;9.83;8.90;;;22.60;79.40;;;;;;5014077;28;20510;-55
2022/05/08 08:12:40;;;;;;;11.57;8.30;;;22.60;80.70;;;;;;5018710;28;20481;-54
2022/05/08 08:15:08;;;;;;;15.93;8.73;;;22.50;81.00;;;;;;5019202;28;20827;-54
2022/05/08 08:17:35;;;;;;;10.40;9.40;;;22.40;78.70;;;;;;5015887;28;20541;-54
2022/05/08 08:20:04;;;;;;;8.63;7.83;;;22.40;79.20;;;;;;5017261;28;20524;-54
2022/05/08 08:22:30;;;;;;;9.30;8.40;;;22.40;80.10;;;;;;5001679;28;21797;-55
2022/05/08 08:24:59;;;;;;;9.70;8.77;;;22.40;79.10;;;;;;5002740;28;20533;-56
2022/05/08 08:27:26;;;;;;;9.47;8.50;;;22.50;81.00;;;;;;5013494;28;20475;-54
2022/05/08 08:29:54;;;;;;;8.80;8.00;;;22.60;80.20;;;;;;5015775;28;20486;-54
2022/05/08 08:32:21;;;;;;;9.70;8.00;;;22.70;79.10;;;;;;5007386;28;20479;-54
2022/05/08 08:34:48;;;;;;;13.50;9.67;;;22.80;78.90;;;;;;4998117;28;20484;-54
2022/05/08 08:37:16;;;;;;;9.50;8.60;;;22.80;78.80;;;;;;4998206;28;20829;-55
2022/05/08 08:39:43;;;;;;;12.70;8.97;;;22.90;79.40;;;;;;4997517;28;20485;-54
2022/05/08 08:42:25;;;;;;;9.10;8.10;;;22.90;79.80;;;;;;4988803;28;20580;-55
2022/05/08 08:47:46;;;;;;;9.60;8.53;;;23.00;79.00;;;;;;4996260;28;20502;-54
2022/05/08 08:50:13;;;;;;;9.27;8.07;;;23.20;80.60;;;;;;4995053;28;21023;-54
2022/05/08 08:52:41;;;;;;;9.33;8.53;;;23.40;79.50;;;;;;4998489;28;20496;-54
2022/05/08 08:55:09;;;;;;;9.40;7.30;;;23.60;79.50;;;;;;4997886;28;20547;-54
2022/05/08 08:57:36;;;;;;;11.20;8.67;;;23.70;77.60;;;;;;4996892;28;21079;-54
2022/05/08 09:00:05;;;;;;;12.83;8.00;;;23.70;78.00;;;;;;4995635;28;20467;-55
2022/05/08 09:02:31;;;;;;;11.13;7.77;;;23.70;78.00;;;;;;4996852;28;20547;-55
2022/05/08 09:04:59;;;;;;;7.90;7.30;;;23.80;78.00;;;;;;4996781;28;20488;-55
2022/05/08 09:07:45;;;;;;;9.47;7.57;;;23.90;77.20;;;;;;4986537;28;20469;-55
2022/05/08 09:10:18;;;;;;;8.47;7.67;;;24.00;79.40;;;;;;5011063;28;20468;-55
2022/05/08 09:13:01;;;;;;;8.90;7.87;;;24.20;79.00;;;;;;5016578;28;20885;-54
2022/05/08 09:15:29;;;;;;;7.80;7.10;;;24.50;79.50;;;;;;5017250;28;20481;-56
2022/05/08 09:17:57;;;;;;;8.00;7.30;;;24.70;76.90;;;;;;5014611;28;20531;-55
2022/05/08 09:20:27;;;;;;;7.73;6.73;;;24.80;76.00;;;;;;5015177;28;20492;-55
2022/05/08 09:23:10;;;;;;;8.37;7.53;;;24.80;76.40;;;;;;5012980;28;20555;-55
2022/05/08 09:25:59;;;;;;;9.23;7.40;;;24.90;75.90;;;;;;5001722;28;20480;-54
2022/05/08 09:28:27;;;;;;;8.83;7.90;;;24.90;76.40;;;;;;5015435;28;20967;-55
2022/05/08 09:30:58;;;;;;;24.73;7.63;;;24.90;75.40;;;;;;5014712;28;20978;-55
2022/05/08 09:33:30;;;;;;;8.03;7.23;;;25.00;76.30;;;;;;5014608;28;21030;-54
2022/05/08 09:35:57;;;;;;;7.77;7.13;;;25.20;77.00;;;;;;5016881;28;20484;-55
2022/05/08 09:38:50;;;;;;;7.20;6.53;;;25.20;75.60;;;;;;5016364;28;20564;-55
2022/05/08 09:41:21;;;;;;;8.80;7.53;;;25.30;75.60;;;;;;5016706;28;20515;-55
2022/05/08 09:43:51;;;;;;;10.80;8.70;;;25.40;77.80;;;;;;5014377;28;20493;-54
2022/05/08 09:46:20;;;;;;;7.97;7.20;;;25.40;74.70;;;;;;5016709;28;20485;-54
2022/05/08 09:48:47;;;;;;;8.27;6.50;;;25.40;76.90;;;;;;5011430;28;20488;-55
2022/05/08 09:51:15;;;;;;;7.00;6.10;;;25.50;76.00;;;;;;5014985;28;20543;-55
2022/05/08 09:53:45;;;;;;;7.83;5.73;;;25.50;74.10;;;;;;5014315;28;21211;-54
2022/05/08 09:56:13;;;;;;;6.13;5.63;;;25.60;73.00;;;;;;5014711;28;20634;-55
2022/05/08 09:58:41;;;;;;;7.80;6.47;;;25.60;72.10;;;;;;5015072;28;20480;-54
2022/05/08 10:01:08;;;;;;;8.63;6.33;;;25.70;72.50;;;;;;5012960;28;20499;-55
2022/05/08 10:03:35;;;;;;;6.17;5.57;;;25.60;71.50;;;;;;5013748;28;20481;-54
2022/05/08 10:06:02;;;;;;;9.27;6.40;;;25.60;72.50;;;;;;5016959;28;20491;-55
2022/05/08 10:08:30;;;;;;;17.70;6.70;;;25.50;71.90;;;;;;5016368;28;20480;-55
2022/05/08 10:13:54;;;;;;;6.47;5.83;;;25.50;72.50;;;;;;5012956;28;20488;-54
2022/05/08 10:16:46;;;;;;;6.70;6.10;;;25.50;74.70;;;;;;5014444;28;21049;-54
2022/05/08 10:19:46;;;;;;;8.27;6.10;;;25.60;72.50;;;;;;5012818;28;20480;-55
2022/05/08 10:22:14;;;;;;;6.57;5.97;;;25.60;71.10;;;;;;5014278;28;20480;-54
2022/05/08 10:24:47;;;;;;;6.07;4.90;;;25.80;73.00;;;;;;5014772;28;20623;-54
2022/05/08 10:27:18;;;;;;;6.73;5.47;;;26.00;70.40;;;;;;5015570;28;20508;-54
2022/05/08 10:30:31;;;;;;;9.77;5.50;;;26.10;71.80;;;;;;5011264;28;20899;-54
2022/05/08 10:32:59;;;;;;;7.30;5.90;;;26.30;70.50;;;;;;5015320;28;20457;-53
2022/05/08 10:35:27;;;;;;;5.70;5.20;;;26.60;71.80;;;;;;5015347;28;20550;-54
2022/05/08 10:38:21;;;;;;;6.30;4.63;;;26.80;70.10;;;;;;5013102;28;20993;-54
2022/05/08 10:40:48;;;;;;;4.77;4.37;;;26.90;68.70;;;;;;5008478;28;20897;-54
2022/05/08 10:43:28;;;;;;;6.17;4.90;;;27.00;70.40;;;;;;5015713;28;20796;-53
2022/05/08 10:45:56;;;;;;;6.97;5.07;;;26.90;68.00;;;;;;5015675;28;20495;-54
2022/05/08 10:48:25;;;;;;;4.80;4.40;;;26.80;68.60;;;;;;5013553;28;20485;-54
2022/05/08 10:50:53;;;;;;;5.93;5.37;;;26.80;70.60;;;;;;5013984;28;20484;-54
2022/05/08 10:53:24;;;;;;;5.43;5.03;;;26.70;67.70;;;;;;5015222;28;20993;-54
2022/05/08 10:55:52;;;;;;;6.50;4.63;;;26.80;68.00;;;;;;5012727;28;20488;-54
2022/05/08 10:58:19;;;;;;;5.50;5.00;;;26.90;69.40;;;;;;5014251;28;20817;-54
2022/05/08 11:00:47;;;;;;;6.97;4.70;;;27.00;66.80;;;;;;5010728;28;20520;-54
2022/05/08 11:03:21;;;;;;;6.00;4.90;;;27.00;67.40;;;;;;5014400;28;21018;-54
2022/05/08 11:05:49;;;;;;;6.23;4.43;;;27.00;68.00;;;;;;5013597;28;21211;-54
2022/05/08 11:08:23;;;;;;;6.20;4.30;;;27.00;65.90;;;;;;5013024;28;20491;-54
2022/05/08 11:10:58;;;;;;;5.93;4.80;;;27.00;68.80;;;;;;5011021;28;20489;-54
2022/05/08 11:13:26;;;;;;;7.77;4.97;;;27.00;67.50;;;;;;5015330;28;20480;-54
2022/05/08 11:15:55;;;;;;;6.27;5.07;;;27.00;66.10;;;;;;5012052;28;20480;-54
2022/05/08 11:18:24;;;;;;;4.33;3.93;;;27.00;66.90;;;;;;5014560;28;20492;-54
2022/05/08 11:20:53;;;;;;;4.90;4.40;;;26.90;63.30;;;;;;5005728;28;20493;-54
2022/05/08 11:23:22;;;;;;;6.80;4.40;;;26.70;67.40;;;;;;4999632;28;20464;-54
2022/05/08 11:25:50;;;;;;;4.50;4.20;;;26.90;66.80;;;;;;4991048;28;20478;-54
2022/05/08 11:28:19;;;;;;;5.00;4.60;;;27.10;66.10;;;;;;5006815;28;20451;-54
2022/05/08 11:30:47;;;;;;;5.90;5.17;;;27.20;65.30;;;;;;4998977;28;20447;-55
2022/05/08 11:36:07;;;;;;;4.50;4.20;;;27.50;64.40;;;;;;4998106;28;20549;-54
2022/05/08 11:38:44;;;;;;;4.83;4.20;;;27.30;63.70;;;;;;5001786;28;20924;-54
2022/05/08 11:41:12;;;;;;;7.03;4.47;;;26.90;65.10;;;;;;4993789;28;20986;-55
2022/05/08 11:43:40;;;;;;;6.97;5.50;;;26.70;65.20;;;;;;4997933;28;21105;-53
2022/05/08 11:46:08;;;;;;;5.27;4.53;;;26.70;67.10;;;;;;4989621;28;20551;-53
2022/05/08 11:48:40;;;;;;;5.97;4.97;;;26.80;65.10;;;;;;4998361;28;20488;-54
2022/05/08 11:51:07;;;;;;;4.63;4.23;;;26.90;67.20;;;;;;4995755;28;20520;-54
2022/05/08 11:53:45;;;;;;;10.17;4.80;;;26.70;64.20;;;;;;4998364;28;20492;-54
2022/05/08 11:56:26;;;;;;;4.77;4.33;;;26.40;64.40;;;;;;5000365;28;20472;-55
2022/05/08 11:58:53;;;;;;;5.60;4.27;;;26.30;63.40;;;;;;5000187;28;20599;-53
2022/05/08 12:01:28;;;;;;;5.57;4.63;;;26.10;64.00;;;;;;4996634;28;21081;-53
2022/05/08 12:03:57;;;;;;;6.47;5.00;;;26.10;64.80;;;;;;4993506;28;20979;-54
2022/05/08 12:06:24;;;;;;;6.03;4.67;;;26.10;66.00;;;;;;4993948;28;20498;-54
2022/05/08 12:08:51;;;;;;;5.30;4.90;;;26.00;66.70;;;;;;5000369;28;20534;-54
2022/05/08 12:11:33;;;;;;;4.70;4.40;;;25.90;67.10;;;;;;4997782;28;20484;-54
2022/05/08 12:14:04;;;;;;;6.33;5.60;;;26.00;65.00;;;;;;5000639;28;20546;-53
2022/05/08 12:16:32;;;;;;;5.27;4.77;;;26.20;68.90;;;;;;4999314;28;21027;-54
2022/05/08 12:19:15;;;;;;;5.37;3.97;;;26.20;64.50;;;;;;5005715;28;20845;-54
2022/05/08 12:21:43;;;;;;;5.43;4.93;;;26.00;66.60;;;;;;5001979;28;20470;-54
2022/05/08 12:24:11;;;;;;;5.50;5.00;;;25.90;67.30;;;;;;5003405;28;20896;-53
2022/05/08 12:26:38;;;;;;;8.10;5.17;;;25.80;69.00;;;;;;5006004;28;20479;-54
2022/05/08 12:29:08;;;;;;;7.20;6.20;;;25.70;68.80;;;;;;4999095;28;20692;-53
2022/05/08 12:31:35;;;;;;;5.83;5.33;;;25.80;70.40;;;;;;4994252;28;21034;-54
2022/05/08 12:34:05;;;;;;;6.00;5.50;;;25.80;70.30;;;;;;4991588;28;20469;-55
2022/05/08 12:36:33;;;;;;;5.50;5.00;;;25.80;69.90;;;;;;4999320;28;20994;-54
2022/05/08 12:39:00;;;;;;;6.70;6.03;;;25.70;66.70;;;;;;4994348;28;20603;-54
2022/05/08 12:41:26;;;;;;;6.63;5.57;;;25.70;69.10;;;;;;4995571;28;20486;-54
2022/05/08 12:43:54;;;;;;;6.93;5.17;;;25.70;67.30;;;;;;4994715;28;20485;-54
2022/05/08 12:46:20;;;;;;;5.17;4.73;;;25.70;66.70;;;;;;4974723;28;20580;-54
2022/05/08 12:48:48;;;;;;;5.47;4.97;;;25.70;68.60;;;;;;5005510;28;20940;-54
2022/05/08 12:51:15;;;;;;;5.17;4.77;;;25.90;65.60;;;;;;4995058;28;20559;-59
2022/05/08 12:53:43;;;;;;;7.50;5.80;;;26.10;67.00;;;;;;4999337;28;20512;-54
2022/05/08 12:56:10;;;;;;;6.93;5.83;;;26.30;66.60;;;;;;4996218;28;20965;-54
2022/05/08 13:01:21;;;;;;;7.50;5.13;;;26.60;65.90;;;;;;4994147;28;20538;-54
2022/05/08 13:03:48;;;;;;;5.30;4.10;;;26.70;66.40;;;;;;4991783;28;20916;-54
2022/05/08 13:06:15;;;;;;;5.10;4.70;;;26.80;66.40;;;;;;4991098;28;20466;-54
2022/05/08 13:08:43;;;;;;;8.13;5.23;;;26.90;65.60;;;;;;4993040;28;20469;-54
2022/05/08 13:11:09;;;;;;;4.93;4.53;;;27.10;66.00;;;;;;5001597;28;20481;-54
2022/05/08 13:13:37;;;;;;;5.00;4.60;;;27.20;64.60;;;;;;4993430;28;20484;-53